createdAt,value
2018-12-18T00:02:13.827Z,6.10
2018-12-18T00:04:46.162Z,6.10
2018-12-18T00:07:18.549Z,6.00
2018-12-18T00:09:48.962Z,6.00
2018-12-18T00:12:19.346Z,6.00
2018-12-18T00:14:55.729Z,6.10
2018-12-18T00:17:26.053Z,6.10
2018-12-18T00:19:56.332Z,6.10
2018-12-18T00:22:26.554Z,6.10
2018-12-18T00:24:56.753Z,6.10
2018-12-18T00:27:27.034Z,6.10
2018-12-18T00:29:57.302Z,6.10
2018-12-18T00:32:27.521Z,6.10
2018-12-18T00:34:57.790Z,6.10
2018-12-18T00:37:28.096Z,6.10
2018-12-18T00:39:58.510Z,6.20
2018-12-18T00:42:29.778Z,6.20
2018-12-18T00:45:00.153Z,6.20
2018-12-18T00:47:30.467Z,6.20
2018-12-18T00:50:01.135Z,6.20
2018-12-18T00:52:31.572Z,6.10
2018-12-18T00:55:01.894Z,6.10
2018-12-18T00:57:32.306Z,6.10
2018-12-18T01:00:02.746Z,6.10
2018-12-18T01:02:33.317Z,6.10
2018-12-18T01:05:03.709Z,6.10
2018-12-18T01:07:34.262Z,6.10
2018-12-18T01:10:04.927Z,6.10
2018-12-18T01:12:35.241Z,6.10
2018-12-18T01:15:05.954Z,6.10
2018-12-18T01:17:36.281Z,6.00
2018-12-18T01:20:06.756Z,6.00
2018-12-18T01:22:37.038Z,6.00
2018-12-18T01:25:07.552Z,6.00
2018-12-18T01:27:38.014Z,6.00
2018-12-18T01:30:08.361Z,6.00
2018-12-18T01:32:38.660Z,5.90
2018-12-18T01:35:08.934Z,5.90
2018-12-18T01:37:39.060Z,5.90
2018-12-18T01:40:09.438Z,5.80
2018-12-18T01:42:39.781Z,5.80
2018-12-18T01:45:09.998Z,5.70
2018-12-18T01:47:40.230Z,5.70
2018-12-18T01:50:10.500Z,5.70
2018-12-18T01:52:40.771Z,5.60
2018-12-18T01:55:10.963Z,5.60
2018-12-18T01:57:41.225Z,5.60
2018-12-18T02:00:11.446Z,5.50
2018-12-18T02:02:41.667Z,5.40
2018-12-18T02:05:11.846Z,5.40
2018-12-18T02:07:42.155Z,5.30
2018-12-18T02:10:12.359Z,5.20
2018-12-18T02:12:42.680Z,5.20
2018-12-18T02:15:12.940Z,5.20
2018-12-18T02:17:43.181Z,5.10
2018-12-18T02:20:13.434Z,5.00
2018-12-18T02:22:43.665Z,5.00
2018-12-18T02:25:13.826Z,4.90
2018-12-18T02:27:44.111Z,4.80
2018-12-18T02:30:14.418Z,4.80
2018-12-18T02:32:44.628Z,4.70
2018-12-18T02:35:14.785Z,4.70
2018-12-18T02:37:45.441Z,4.60
2018-12-18T02:40:15.594Z,4.60
2018-12-18T02:42:45.748Z,4.60
2018-12-18T02:45:15.985Z,4.50
2018-12-18T02:47:46.334Z,4.50
2018-12-18T02:50:16.465Z,4.50
2018-12-18T02:52:46.613Z,4.40
2018-12-18T02:55:17.216Z,4.40
2018-12-18T02:57:47.479Z,4.40
2018-12-18T03:00:17.718Z,4.40
2018-12-18T03:02:47.894Z,4.40
2018-12-18T03:05:18.349Z,4.50
2018-12-18T03:07:48.550Z,4.40
2018-12-18T03:10:18.857Z,4.40
2018-12-18T03:12:49.051Z,4.50
2018-12-18T03:15:19.292Z,4.50
2018-12-18T03:17:49.408Z,4.60
2018-12-18T03:20:19.689Z,4.50
2018-12-18T03:22:49.850Z,4.50
2018-12-18T03:25:20.229Z,4.60
2018-12-18T03:27:50.438Z,4.60
2018-12-18T03:33:38.181Z,4.60
2018-12-18T03:36:08.457Z,4.60
2018-12-18T03:38:38.754Z,4.60
2018-12-18T03:41:09.100Z,4.50
2018-12-18T03:43:39.290Z,4.50
2018-12-18T03:46:09.619Z,4.40
2018-12-18T03:48:39.929Z,4.40
2018-12-18T03:51:10.296Z,4.30
2018-12-18T03:53:40.531Z,4.30
2018-12-18T03:56:10.987Z,4.20
2018-12-18T03:58:41.456Z,4.20
2018-12-18T04:01:11.862Z,4.10
2018-12-18T04:03:42.311Z,4.10
2018-12-18T04:06:12.730Z,4.10
2018-12-18T04:08:43.143Z,4.10
2018-12-18T04:11:13.564Z,4.10
2018-12-18T04:13:43.936Z,4.00
2018-12-18T04:16:14.251Z,4.00
2018-12-18T04:18:44.605Z,4.10
2018-12-18T04:21:14.953Z,4.00
2018-12-18T04:23:45.418Z,4.00
2018-12-18T04:26:15.550Z,4.00
2018-12-18T04:28:45.933Z,4.00
2018-12-18T04:31:16.160Z,3.90
2018-12-18T04:33:46.333Z,3.80
2018-12-18T04:36:16.833Z,3.80
2018-12-18T04:38:47.044Z,3.80
2018-12-18T04:41:17.474Z,3.70
2018-12-18T04:43:47.705Z,3.70
2018-12-18T04:46:17.919Z,3.60
2018-12-18T04:48:48.144Z,3.60
2018-12-18T04:51:18.356Z,3.60
2018-12-18T04:53:48.524Z,3.50
2018-12-18T04:56:18.675Z,3.50
2018-12-18T04:58:48.998Z,3.50
2018-12-18T05:01:19.171Z,3.50
2018-12-18T05:03:49.451Z,3.50
2018-12-18T05:06:19.768Z,3.50
2018-12-18T05:08:49.881Z,3.50
2018-12-18T05:11:20.121Z,3.40
2018-12-18T05:13:51.033Z,3.40
2018-12-18T05:16:21.204Z,3.40
2018-12-18T05:18:51.512Z,3.40
2018-12-18T05:21:21.697Z,3.40
2018-12-18T05:23:51.902Z,3.40
2018-12-18T05:26:22.050Z,3.40
2018-12-18T05:28:52.207Z,3.40
2018-12-18T05:31:22.309Z,3.50
2018-12-18T05:33:52.490Z,3.50
2018-12-18T05:36:22.805Z,3.50
2018-12-18T05:38:52.943Z,3.50
2018-12-18T05:41:23.173Z,3.50
2018-12-18T05:43:53.448Z,3.40
2018-12-18T05:46:23.724Z,3.50
2018-12-18T05:48:53.826Z,3.60
2018-12-18T05:51:23.958Z,3.60
2018-12-18T05:53:54.062Z,3.60
2018-12-18T05:56:24.318Z,3.60
2018-12-18T05:58:54.464Z,3.60
2018-12-18T06:01:24.633Z,3.70
2018-12-18T06:03:54.815Z,3.60
2018-12-18T06:06:25.072Z,3.60
2018-12-18T06:08:55.186Z,3.40
2018-12-18T06:11:25.348Z,3.40
2018-12-18T06:13:55.635Z,3.40
2018-12-18T06:16:25.756Z,3.30
2018-12-18T06:18:55.890Z,3.20
2018-12-18T06:21:26.047Z,3.20
2018-12-18T06:23:56.137Z,3.30
2018-12-18T06:26:26.284Z,2.70
2018-12-18T06:28:56.450Z,3.90
2018-12-18T06:31:26.616Z,4.30
2018-12-18T06:33:56.733Z,4.50
2018-12-18T06:36:26.882Z,4.70
2018-12-18T06:38:56.988Z,4.80
2018-12-18T06:41:27.110Z,4.90
2018-12-18T06:43:58.307Z,4.90
2018-12-18T06:46:28.448Z,4.90
2018-12-18T06:48:58.536Z,4.90
2018-12-18T06:51:28.662Z,4.90
2018-12-18T06:53:58.839Z,4.80
2018-12-18T06:56:28.932Z,4.70
2018-12-18T06:58:59.218Z,4.60
2018-12-18T07:01:29.475Z,4.50
2018-12-18T07:03:59.702Z,4.40
2018-12-18T07:06:29.957Z,4.30
2018-12-18T07:09:00.161Z,4.20
2018-12-18T07:11:30.369Z,4.20
2018-12-18T07:14:00.527Z,4.10
2018-12-18T07:16:30.742Z,4.00
2018-12-18T07:19:01.039Z,3.90
2018-12-18T07:21:31.271Z,3.90
2018-12-18T07:24:01.349Z,3.80
2018-12-18T07:26:31.406Z,3.80
2018-12-18T07:29:01.541Z,3.70
2018-12-18T07:31:31.697Z,3.60
2018-12-18T07:34:01.857Z,3.50
2018-12-18T07:36:32.033Z,3.40
2018-12-18T07:39:02.130Z,3.40
2018-12-18T07:41:34.221Z,3.40
2018-12-18T07:44:04.326Z,3.40
2018-12-18T07:46:34.477Z,3.40
2018-12-18T07:49:04.615Z,3.40
2018-12-18T07:51:34.775Z,3.30
2018-12-18T07:54:05.043Z,3.30
2018-12-18T07:56:35.309Z,3.30
2018-12-18T07:59:05.761Z,3.40
2018-12-18T08:01:35.901Z,3.40
2018-12-18T08:04:06.086Z,3.40
2018-12-18T08:06:37.312Z,3.40
2018-12-18T08:09:09.132Z,3.40
2018-12-18T08:11:39.296Z,3.30
2018-12-18T08:14:09.586Z,3.40
2018-12-18T08:16:39.719Z,3.40
2018-12-18T08:19:09.849Z,3.50
2018-12-18T08:21:40.068Z,3.40
2018-12-18T08:24:10.256Z,3.40
2018-12-18T08:26:40.431Z,3.40
2018-12-18T08:29:10.547Z,3.40
2018-12-18T08:31:40.738Z,3.40
2018-12-18T08:34:10.898Z,3.40
2018-12-18T08:36:41.051Z,3.50
2018-12-18T08:39:11.243Z,3.50
2018-12-18T08:41:41.389Z,3.60
2018-12-18T08:44:11.514Z,3.60
2018-12-18T08:46:41.698Z,3.60
2018-12-18T08:49:11.887Z,3.60
2018-12-18T08:51:42.038Z,3.60
2018-12-18T08:54:12.193Z,3.60
2018-12-18T08:56:42.359Z,3.60
2018-12-18T08:59:12.554Z,3.60
2018-12-18T09:01:42.681Z,3.60
2018-12-18T09:04:12.838Z,3.60
2018-12-18T09:06:43.031Z,3.60
2018-12-18T09:09:13.205Z,3.60
2018-12-18T09:11:43.369Z,3.60
2018-12-18T09:14:13.560Z,3.60
2018-12-18T09:16:48.880Z,3.60
2018-12-18T09:19:19.035Z,3.60
2018-12-18T09:21:49.211Z,3.50
2018-12-18T09:24:19.329Z,3.60
2018-12-18T09:26:49.465Z,3.60
2018-12-18T09:29:19.704Z,3.70
2018-12-18T09:31:49.949Z,3.70
2018-12-18T09:34:20.073Z,3.70
2018-12-18T09:36:50.263Z,3.70
2018-12-18T09:42:15.192Z,3.80
2018-12-18T09:44:45.425Z,3.80
2018-12-18T09:47:15.611Z,3.80
2018-12-18T09:49:45.721Z,3.90
2018-12-18T09:52:15.864Z,3.90
2018-12-18T09:54:45.959Z,4.00
2018-12-18T09:57:21.256Z,4.00
2018-12-18T09:59:51.415Z,4.10
2018-12-18T10:02:21.566Z,4.10
2018-12-18T10:04:51.709Z,4.10
2018-12-18T10:07:21.945Z,4.10
2018-12-18T10:09:52.130Z,4.10
2018-12-18T10:12:27.367Z,4.20
2018-12-18T10:14:57.529Z,4.30
2018-12-18T10:17:27.727Z,4.30
2018-12-18T10:19:57.851Z,4.40
2018-12-18T10:22:27.940Z,4.50
2018-12-18T10:24:58.139Z,4.60
2018-12-18T10:27:29.338Z,4.60
2018-12-18T10:30:00.489Z,4.60
2018-12-18T10:32:30.678Z,4.70
2018-12-18T10:35:00.892Z,4.70
2018-12-18T10:37:31.412Z,4.70
2018-12-18T10:40:01.610Z,4.80
2018-12-18T10:42:32.733Z,4.80
2018-12-18T10:45:02.953Z,4.90
2018-12-18T10:47:33.405Z,4.90
2018-12-18T10:50:03.537Z,5.00
2018-12-18T10:52:33.770Z,5.00
2018-12-18T10:55:04.004Z,5.00
2018-12-18T10:57:34.177Z,5.00
2018-12-18T11:00:08.132Z,5.00
2018-12-18T11:02:39.086Z,5.10
2018-12-18T11:05:09.503Z,5.10
2018-12-18T11:07:39.584Z,5.00
2018-12-18T11:10:09.833Z,5.00
2018-12-18T11:15:28.106Z,5.20
2018-12-18T11:17:58.177Z,5.20
2018-12-18T11:20:28.315Z,5.20
2018-12-18T11:22:58.432Z,5.30
2018-12-18T11:25:28.575Z,5.30
2018-12-18T11:27:58.746Z,5.30
2018-12-18T11:30:28.888Z,5.40
2018-12-18T11:32:59.033Z,5.50
2018-12-18T11:35:29.172Z,5.50
2018-12-18T11:37:59.294Z,5.60
2018-12-18T11:40:29.483Z,5.60
2018-12-18T11:42:59.685Z,5.70
2018-12-18T11:45:29.751Z,5.70
2018-12-18T11:47:59.877Z,5.70
2018-12-18T11:50:30.024Z,5.70
2018-12-18T11:53:00.189Z,5.70
2018-12-18T11:55:31.521Z,5.80
2018-12-18T11:58:01.724Z,5.90
2018-12-18T12:00:32.199Z,5.90
2018-12-18T12:03:02.441Z,6.10
2018-12-18T12:05:34.480Z,6.10
2018-12-18T12:08:04.653Z,6.10
2018-12-18T12:10:34.794Z,6.10
2018-12-18T12:13:05.060Z,6.20
2018-12-18T12:15:35.235Z,6.20
2018-12-18T12:18:05.360Z,6.30
2018-12-18T12:20:35.517Z,6.30
2018-12-18T12:23:06.736Z,6.30
2018-12-18T12:25:37.093Z,6.30
2018-12-18T12:28:07.371Z,6.30
2018-12-18T12:30:37.564Z,6.40
2018-12-18T12:33:07.723Z,6.50
2018-12-18T12:35:37.899Z,6.50
2018-12-18T12:38:08.153Z,6.60
2018-12-18T12:40:38.301Z,6.60
2018-12-18T12:43:08.515Z,6.60
2018-12-18T12:45:38.811Z,6.70
2018-12-18T12:48:11.868Z,6.70
2018-12-18T12:50:42.020Z,6.80
2018-12-18T12:53:12.670Z,6.80
2018-12-18T12:55:43.022Z,6.80
2018-12-18T12:58:13.171Z,6.90
2018-12-18T13:00:43.273Z,6.90
2018-12-18T13:03:13.418Z,7.00
2018-12-18T13:05:43.581Z,7.00
2018-12-18T13:08:13.803Z,6.90
2018-12-18T13:10:43.975Z,7.00
2018-12-18T13:13:20.245Z,7.10
2018-12-18T13:15:50.398Z,7.10
2018-12-18T13:18:20.529Z,7.00
2018-12-18T13:20:50.761Z,7.10
2018-12-18T13:23:20.892Z,7.10
2018-12-18T13:25:51.127Z,7.20
2018-12-18T13:28:21.266Z,7.20
2018-12-18T13:30:51.445Z,7.20
2018-12-18T13:33:21.690Z,7.20
2018-12-18T13:35:51.765Z,7.20
2018-12-18T13:38:21.902Z,7.20
2018-12-18T13:40:52.085Z,7.30
2018-12-18T13:43:22.317Z,7.30
2018-12-18T13:45:52.504Z,7.40
2018-12-18T13:48:23.328Z,7.40
2018-12-18T13:50:53.481Z,7.40
2018-12-18T13:53:23.632Z,7.40
2018-12-18T13:55:53.769Z,7.50
2018-12-18T13:58:24.049Z,7.50
2018-12-18T14:00:54.140Z,7.60
2018-12-18T14:03:24.285Z,7.60
2018-12-18T14:05:54.385Z,7.60
2018-12-18T14:08:24.537Z,7.60
2018-12-18T14:10:54.773Z,7.60
2018-12-18T14:13:25.002Z,7.60
2018-12-18T14:15:55.157Z,7.60
2018-12-18T14:18:25.310Z,7.60
2018-12-18T14:20:55.433Z,7.60
2018-12-18T14:23:25.681Z,7.60
2018-12-18T14:25:55.825Z,7.60
2018-12-18T14:28:26.025Z,7.60
2018-12-18T14:30:56.169Z,7.60
2018-12-18T14:33:33.032Z,7.50
2018-12-18T14:36:03.176Z,7.50
2018-12-18T14:38:33.392Z,7.50
2018-12-18T14:41:03.611Z,7.50
2018-12-18T14:43:33.790Z,7.50
2018-12-18T14:46:04.087Z,7.60
2018-12-18T14:48:34.250Z,7.60
2018-12-18T14:51:04.559Z,7.60
2018-12-18T14:53:34.868Z,7.50
2018-12-18T14:56:05.030Z,7.50
2018-12-18T14:58:35.178Z,7.50
2018-12-18T15:01:05.401Z,7.50
2018-12-18T15:03:35.547Z,7.50
2018-12-18T15:06:05.654Z,7.50
2018-12-18T15:08:35.889Z,7.40
2018-12-18T15:11:06.175Z,7.40
2018-12-18T15:13:36.386Z,7.40
2018-12-18T15:16:06.642Z,7.40
2018-12-18T15:18:36.851Z,7.30
2018-12-18T15:21:06.967Z,7.30
2018-12-18T15:23:37.242Z,7.20
2018-12-18T15:26:07.539Z,7.20
2018-12-18T15:28:37.874Z,7.10
2018-12-18T15:31:08.225Z,7.00
2018-12-18T15:33:38.566Z,7.00
2018-12-18T15:36:08.968Z,6.90
2018-12-18T15:38:39.152Z,6.90
2018-12-18T15:41:09.459Z,6.80
2018-12-18T15:43:39.726Z,6.80
2018-12-18T15:46:09.932Z,6.80
2018-12-18T15:48:40.161Z,6.70
2018-12-18T15:51:10.562Z,6.70
2018-12-18T15:53:40.731Z,6.60
2018-12-18T15:56:10.913Z,6.50
2018-12-18T15:58:41.072Z,6.50
2018-12-18T16:01:11.213Z,6.50
2018-12-18T16:03:41.366Z,6.40
2018-12-18T16:06:11.525Z,6.40
2018-12-18T16:08:41.689Z,6.30
2018-12-18T16:11:11.837Z,6.30
2018-12-18T16:13:42.081Z,6.20
2018-12-18T16:16:12.214Z,6.20
2018-12-18T16:18:42.464Z,6.10
2018-12-18T16:21:12.606Z,6.00
2018-12-18T16:23:42.761Z,5.90
2018-12-18T16:26:12.893Z,5.80
2018-12-18T16:28:43.092Z,5.70
2018-12-18T16:31:13.261Z,5.70
2018-12-18T16:33:43.536Z,5.70
2018-12-18T16:36:13.691Z,5.70
2018-12-18T16:38:43.881Z,5.60
2018-12-18T16:41:14.005Z,5.60
2018-12-18T16:43:44.226Z,5.50
2018-12-18T16:46:14.500Z,5.50
2018-12-18T16:48:44.724Z,5.40
2018-12-18T16:51:14.987Z,5.40
2018-12-18T16:53:45.221Z,5.30
2018-12-18T16:56:15.420Z,5.30
2018-12-18T16:58:45.584Z,5.20
2018-12-18T17:01:15.721Z,5.20
2018-12-18T17:03:45.882Z,5.30
2018-12-18T17:06:16.150Z,5.30
2018-12-18T17:08:46.377Z,5.30
2018-12-18T17:11:16.521Z,5.40
2018-12-18T17:13:46.661Z,5.40
2018-12-18T17:16:17.995Z,5.40
2018-12-18T17:18:48.248Z,5.40
2018-12-18T17:21:18.341Z,5.50
2018-12-18T17:23:48.518Z,5.60
2018-12-18T17:26:18.728Z,5.80
2018-12-18T17:28:49.037Z,5.80
2018-12-18T17:31:19.177Z,5.90
2018-12-18T17:33:49.304Z,6.00
2018-12-18T17:36:19.549Z,6.10
2018-12-18T17:38:49.687Z,6.10
2018-12-18T17:41:19.818Z,6.20
2018-12-18T17:43:50.310Z,6.20
2018-12-18T17:46:20.497Z,6.20
2018-12-18T17:48:51.929Z,6.30
2018-12-18T17:51:22.055Z,6.40
2018-12-18T17:53:52.197Z,6.50
2018-12-18T17:56:22.351Z,6.50
2018-12-18T17:58:52.461Z,6.60
2018-12-18T18:01:22.719Z,6.70
2018-12-18T18:03:52.895Z,6.80
2018-12-18T18:06:23.021Z,6.80
2018-12-18T18:08:53.322Z,6.80
2018-12-18T18:11:23.523Z,6.70
2018-12-18T18:13:53.758Z,6.60
2018-12-18T18:16:23.884Z,6.40
2018-12-18T18:18:54.086Z,6.30
2018-12-18T18:21:24.227Z,6.20
2018-12-18T18:23:54.382Z,6.10
2018-12-18T18:26:24.616Z,6.00
2018-12-18T18:28:54.822Z,5.90
2018-12-18T18:31:24.980Z,5.80
2018-12-18T18:33:55.171Z,5.60
2018-12-18T18:36:25.300Z,5.50
2018-12-18T18:38:55.603Z,5.40
2018-12-18T18:41:25.816Z,5.40
2018-12-18T18:43:56.054Z,5.30
2018-12-18T18:46:26.359Z,5.30
2018-12-18T18:48:57.616Z,5.10
2018-12-18T18:51:28.338Z,5.00
2018-12-18T18:53:58.845Z,4.90
2018-12-18T18:56:29.168Z,4.80
2018-12-18T18:58:59.547Z,4.70
2018-12-18T19:01:29.805Z,4.60
2018-12-18T19:04:00.278Z,4.50
2018-12-18T19:06:30.776Z,4.40
2018-12-18T19:09:01.095Z,4.30
2018-12-18T19:11:33.324Z,4.20
2018-12-18T19:14:03.606Z,4.10
2018-12-18T19:16:33.826Z,4.00
2018-12-18T19:19:04.173Z,3.90
2018-12-18T19:21:34.404Z,3.70
2018-12-18T19:24:04.950Z,3.70
2018-12-18T19:26:35.353Z,3.70
2018-12-18T19:29:05.982Z,3.70
2018-12-18T19:31:36.271Z,3.70
2018-12-18T19:34:06.574Z,3.70
2018-12-18T19:36:37.030Z,3.70
2018-12-18T19:39:09.134Z,3.60
2018-12-18T19:41:41.222Z,3.60
2018-12-18T19:44:11.361Z,3.50
2018-12-18T19:46:41.515Z,3.50
2018-12-18T19:49:11.659Z,3.50
2018-12-18T19:51:41.969Z,3.50
2018-12-18T19:54:12.305Z,3.50
2018-12-18T19:56:42.612Z,3.50
2018-12-18T19:59:12.851Z,3.50
2018-12-18T20:01:43.074Z,3.40
2018-12-18T20:04:13.336Z,3.30
2018-12-18T20:06:43.707Z,3.30
2018-12-18T20:09:13.898Z,3.30
2018-12-18T20:11:44.315Z,3.30
2018-12-18T20:14:14.621Z,3.30
2018-12-18T20:16:44.935Z,3.30
2018-12-18T20:19:15.320Z,3.30
2018-12-18T20:21:45.479Z,3.30
2018-12-18T20:24:15.640Z,3.40
2018-12-18T20:26:45.845Z,3.40
2018-12-18T20:29:16.224Z,3.40
2018-12-18T20:31:46.520Z,3.40
2018-12-18T20:34:16.697Z,3.40
2018-12-18T20:36:46.871Z,3.40
2018-12-18T20:39:16.981Z,3.40
2018-12-18T20:41:47.161Z,3.30
2018-12-18T20:44:18.532Z,3.30
2018-12-18T20:46:48.694Z,3.30
2018-12-18T20:49:20.066Z,3.30
2018-12-18T20:51:50.150Z,3.30
2018-12-18T20:54:20.306Z,3.30
2018-12-18T20:56:50.495Z,3.20
2018-12-18T20:59:20.629Z,3.30
2018-12-18T21:01:50.883Z,3.20
2018-12-18T21:04:21.073Z,3.30
2018-12-18T21:06:51.233Z,3.30
2018-12-18T21:09:21.377Z,3.20
2018-12-18T21:11:51.536Z,3.20
2018-12-18T21:14:22.767Z,3.20
2018-12-18T21:16:52.941Z,3.10
2018-12-18T21:19:23.192Z,3.10
2018-12-18T21:21:53.448Z,3.00
2018-12-18T21:24:23.677Z,3.00
2018-12-18T21:26:53.827Z,3.00
2018-12-18T21:29:24.047Z,3.00
2018-12-18T21:31:55.441Z,2.90
2018-12-18T21:34:25.687Z,2.80
2018-12-18T21:36:55.869Z,2.80
2018-12-18T21:39:26.027Z,2.70
2018-12-18T21:41:56.164Z,2.70
2018-12-18T21:44:26.293Z,2.70
2018-12-18T21:46:56.387Z,2.70
2018-12-18T21:49:27.264Z,2.70
2018-12-18T21:51:57.555Z,2.70
2018-12-18T21:54:27.797Z,2.70
2018-12-18T21:56:57.985Z,2.70
2018-12-18T21:59:28.217Z,2.70
2018-12-18T22:01:58.334Z,2.60
2018-12-18T22:04:28.465Z,2.60
2018-12-18T22:06:58.631Z,2.50
2018-12-18T22:09:28.814Z,2.50
2018-12-18T22:11:59.067Z,2.50
2018-12-18T22:14:29.238Z,2.50
2018-12-18T22:16:59.326Z,2.40
2018-12-18T22:19:29.475Z,2.30
2018-12-18T22:21:59.539Z,2.30
2018-12-18T22:24:29.689Z,2.30
2018-12-18T22:26:59.799Z,2.30
2018-12-18T22:29:30.036Z,2.40
2018-12-18T22:32:00.184Z,2.30
2018-12-18T22:34:31.614Z,2.30
2018-12-18T22:37:01.817Z,2.30
2018-12-18T22:39:31.905Z,2.20
2018-12-18T22:42:02.065Z,2.20
2018-12-18T22:44:32.259Z,2.30
2018-12-18T22:47:02.495Z,2.30
2018-12-18T22:49:32.649Z,2.30
2018-12-18T22:52:02.818Z,2.50
2018-12-18T22:54:33.008Z,2.60
2018-12-18T22:57:03.255Z,2.60
2018-12-18T22:59:33.380Z,2.60
2018-12-18T23:04:47.413Z,2.70
2018-12-18T23:07:17.626Z,2.80
2018-12-18T23:09:47.748Z,2.80
2018-12-18T23:12:18.135Z,2.90
2018-12-18T23:14:48.233Z,2.80
2018-12-18T23:17:19.925Z,2.90
2018-12-18T23:19:50.152Z,2.80
2018-12-18T23:22:20.332Z,2.90
2018-12-18T23:24:50.551Z,2.80
2018-12-18T23:27:22.653Z,2.80
2018-12-18T23:29:52.784Z,2.90
2018-12-18T23:32:29.604Z,2.90
2018-12-18T23:34:59.796Z,2.80
2018-12-18T23:37:29.921Z,2.80
2018-12-18T23:40:00.250Z,2.80
2018-12-18T23:42:30.426Z,2.80
2018-12-18T23:45:00.643Z,2.70
2018-12-18T23:47:30.804Z,2.70
2018-12-18T23:50:00.969Z,2.70
2018-12-18T23:52:31.343Z,2.70
2018-12-18T23:55:01.557Z,2.60
2018-12-18T23:57:31.849Z,2.60
